Time;durP1;ratioP1;P1;durP2;ratioP2;P2;SDS_P1;SDS_P2;PMS_P1;PMS_P2;Temp;Humidity;BMP_temperature;BMP_pressure;BME280_temperature;BME280_humidity;BME280_pressure;Samples;Min_cycle;Max_cycle;Signal;HPM_P1;HPM_P2
2022/09/23 00:00:31;;;;;;;6.72;4.45;;;16.10;99.90;;;;;;5035545;28;20047;-57
2022/09/23 00:02:58;;;;;;;6.88;4.00;;;16.10;99.90;;;;;;5035395;28;20053;-61
2022/09/23 00:05:25;;;;;;;6.60;4.40;;;16.10;99.90;;;;;;5035939;28;20045;-57
2022/09/23 00:07:53;;;;;;;9.10;4.50;;;16.00;99.90;;;;;;5035186;28;20408;-57
2022/09/23 00:10:20;;;;;;;8.45;4.20;;;16.00;99.90;;;;;;5039818;28;20544;-60
2022/09/23 00:12:47;;;;;;;6.15;4.10;;;16.00;99.90;;;;;;5044917;28;20095;-54
2022/09/23 00:15:14;;;;;;;7.63;4.38;;;16.00;99.90;;;;;;5035781;28;20064;-57
2022/09/23 00:17:41;;;;;;;8.40;4.43;;;16.00;99.90;;;;;;5040855;28;20037;-60
2022/09/23 00:20:10;;;;;;;5.60;3.85;;;16.00;99.90;;;;;;5043325;28;20082;-56
2022/09/23 00:22:37;;;;;;;6.72;4.13;;;16.00;99.90;;;;;;5036005;28;20536;-58
2022/09/23 00:25:04;;;;;;;10.30;4.40;;;16.00;99.90;;;;;;5035693;28;20084;-60
2022/09/23 00:27:32;;;;;;;7.80;4.22;;;16.00;99.90;;;;;;5034778;28;20065;-59
2022/09/23 00:29:59;;;;;;;8.43;4.95;;;16.00;99.90;;;;;;5036308;28;20116;-59
2022/09/23 00:32:26;;;;;;;8.00;4.57;;;16.00;99.90;;;;;;5050101;28;20410;-59
2022/09/23 00:34:52;;;;;;;6.38;4.30;;;16.00;99.90;;;;;;5037580;28;20045;-60
2022/09/23 00:37:19;;;;;;;10.82;4.20;;;16.00;99.90;;;;;;5033455;28;20501;-58
2022/09/23 00:39:46;;;;;;;6.45;4.75;;;16.00;99.90;;;;;;5021854;28;20124;-59
2022/09/23 00:42:13;;;;;;;6.32;4.20;;;16.00;99.90;;;;;;5019894;28;20125;-55
2022/09/23 00:44:39;;;;;;;6.55;4.25;;;16.00;99.90;;;;;;5015121;28;20094;-59
2022/09/23 00:47:06;;;;;;;7.95;4.63;;;16.00;99.90;;;;;;5015148;28;20046;-60
2022/09/23 00:49:33;;;;;;;12.80;5.00;;;16.00;99.90;;;;;;5024742;28;20124;-57
2022/09/23 00:51:59;;;;;;;6.97;5.00;;;16.00;99.90;;;;;;5034775;28;20489;-57
2022/09/23 00:54:26;;;;;;;10.57;5.28;;;16.00;99.90;;;;;;5034734;28;20041;-58
2022/09/23 00:56:53;;;;;;;9.05;5.32;;;15.90;99.90;;;;;;5034511;28;20428;-60
2022/09/23 00:59:20;;;;;;;10.13;4.97;;;15.90;99.90;;;;;;5035187;28;20042;-60
2022/09/23 01:01:48;;;;;;;12.13;5.40;;;16.00;99.90;;;;;;5034934;28;20362;-58
2022/09/23 01:04:15;;;;;;;8.57;5.45;;;15.90;99.90;;;;;;5034701;28;20045;-59
2022/09/23 01:06:41;;;;;;;8.48;5.05;;;15.90;99.90;;;;;;5033293;28;20136;-57
2022/09/23 01:09:08;;;;;;;7.07;5.38;;;15.90;99.90;;;;;;5034703;28;20485;-57
2022/09/23 01:11:36;;;;;;;9.43;4.97;;;15.80;99.90;;;;;;5033812;28;20068;-59
2022/09/23 01:14:02;;;;;;;7.30;5.60;;;15.80;99.90;;;;;;5033097;28;20117;-61
2022/09/23 01:16:29;;;;;;;8.73;5.32;;;15.80;99.90;;;;;;5033878;28;20042;-58
2022/09/23 01:18:56;;;;;;;7.57;5.13;;;15.70;99.90;;;;;;5034510;28;20037;-57
2022/09/23 01:21:23;;;;;;;8.52;4.90;;;15.70;99.90;;;;;;5034537;28;20073;-61
2022/09/23 01:23:50;;;;;;;7.72;5.47;;;15.70;99.90;;;;;;5033971;28;20087;-56
2022/09/23 01:26:18;;;;;;;9.27;5.47;;;15.70;99.90;;;;;;5033972;28;20502;-56
2022/09/23 01:28:44;;;;;;;10.07;5.70;;;15.60;99.90;;;;;;5033284;28;20116;-59
2022/09/23 01:31:11;;;;;;;11.15;5.63;;;15.60;99.90;;;;;;5032161;28;20128;-60
2022/09/23 01:33:38;;;;;;;8.90;5.40;;;15.60;99.90;;;;;;5033839;28;20037;-57
2022/09/23 01:36:05;;;;;;;9.20;6.47;;;15.60;99.90;;;;;;5033230;28;20042;-58
2022/09/23 01:38:31;;;;;;;9.30;6.40;;;15.60;99.90;;;;;;5033950;28;20051;-55
2022/09/23 01:40:58;;;;;;;9.48;5.88;;;15.60;99.90;;;;;;5031180;28;20065;-59
2022/09/23 01:43:25;;;;;;;9.80;6.63;;;15.60;99.90;;;;;;5034360;28;20037;-56
2022/09/23 01:45:53;;;;;;;7.15;6.00;;;15.60;99.90;;;;;;5032979;28;20056;-59
2022/09/23 01:48:19;;;;;;;9.48;6.72;;;15.60;99.90;;;;;;5033363;28;20069;-58
2022/09/23 01:50:55;;;;;;;9.05;6.10;;;15.60;99.90;;;;;;5031545;28;20099;-58
2022/09/23 01:53:22;;;;;;;6.53;5.70;;;15.60;99.90;;;;;;5033746;28;20096;-56
2022/09/23 01:55:49;;;;;;;7.03;5.32;;;15.50;99.90;;;;;;5033023;28;20473;-58
2022/09/23 01:58:16;;;;;;;8.70;5.50;;;15.60;99.90;;;;;;5032527;28;20041;-56
2022/09/23 02:00:42;;;;;;;7.20;5.78;;;15.60;99.90;;;;;;5033537;28;20049;-58
2022/09/23 02:03:11;;;;;;;9.70;5.82;;;15.60;99.90;;;;;;5033517;28;20453;-60
2022/09/23 02:05:38;;;;;;;9.30;5.95;;;15.60;99.90;;;;;;5033449;28;20045;-55
2022/09/23 02:08:04;;;;;;;12.52;5.88;;;15.60;99.90;;;;;;5033955;28;20076;-56
2022/09/23 02:10:31;;;;;;;8.63;6.30;;;15.60;99.90;;;;;;5032756;28;20041;-58
2022/09/23 02:12:58;;;;;;;8.68;5.85;;;15.60;99.90;;;;;;5033363;28;20042;-59
2022/09/23 02:15:25;;;;;;;7.63;5.78;;;15.60;99.90;;;;;;5033624;28;20053;-59
2022/09/23 02:17:51;;;;;;;8.18;5.63;;;15.60;99.90;;;;;;5033700;28;20075;-55
2022/09/23 02:20:19;;;;;;;10.98;6.50;;;15.60;99.90;;;;;;5033077;28;20053;-59
2022/09/23 02:22:46;;;;;;;7.43;6.03;;;15.60;99.90;;;;;;5033820;28;20403;-58
2022/09/23 02:25:15;;;;;;;10.38;5.72;;;15.60;99.90;;;;;;5031849;28;20037;-59
2022/09/23 02:27:41;;;;;;;11.45;5.88;;;15.60;99.90;;;;;;5033246;28;20045;-57
2022/09/23 02:30:08;;;;;;;6.93;5.57;;;15.60;99.90;;;;;;5031172;28;20128;-59
2022/09/23 02:32:35;;;;;;;6.93;5.70;;;15.60;99.90;;;;;;5033622;28;20128;-58
2022/09/23 02:35:03;;;;;;;8.93;5.60;;;15.60;99.90;;;;;;5031376;28;20052;-57
2022/09/23 02:37:30;;;;;;;7.60;5.35;;;15.60;99.90;;;;;;5032339;28;20037;-60
2022/09/23 02:39:57;;;;;;;7.40;5.28;;;15.70;99.90;;;;;;5033604;28;20152;-58
2022/09/23 02:42:23;;;;;;;8.05;5.32;;;15.70;99.90;;;;;;5032926;28;20124;-58
2022/09/23 02:44:50;;;;;;;8.82;5.63;;;15.60;99.90;;;;;;5030878;28;20137;-59
2022/09/23 02:47:17;;;;;;;9.15;5.55;;;15.60;99.90;;;;;;5033418;28;20053;-61
2022/09/23 02:49:43;;;;;;;8.35;5.97;;;15.70;99.90;;;;;;5033202;28;20076;-56
2022/09/23 02:52:12;;;;;;;7.88;6.05;;;15.60;99.90;;;;;;5037015;28;20550;-57
2022/09/23 02:54:39;;;;;;;11.88;6.40;;;15.60;99.90;;;;;;5035940;28;20104;-57
2022/09/23 02:57:06;;;;;;;11.73;5.85;;;15.60;99.90;;;;;;5037089;28;20104;-58
2022/09/23 02:59:32;;;;;;;6.00;5.13;;;15.60;99.90;;;;;;5036452;28;20445;-59
2022/09/23 03:01:59;;;;;;;9.52;6.32;;;15.60;99.90;;;;;;5036865;28;20125;-56
2022/09/23 03:04:26;;;;;;;8.32;5.20;;;15.60;99.90;;;;;;5033588;28;20069;-58
2022/09/23 03:06:53;;;;;;;11.18;5.72;;;15.60;99.90;;;;;;5036625;28;20068;-60
2022/09/23 03:09:19;;;;;;;9.98;6.15;;;15.60;99.90;;;;;;5036587;28;20063;-60
2022/09/23 03:11:46;;;;;;;10.00;6.32;;;15.60;99.90;;;;;;5036899;28;20129;-60
2022/09/23 03:14:16;;;;;;;8.25;5.40;;;15.60;99.90;;;;;;5034988;28;20501;-56
2022/09/23 03:16:43;;;;;;;8.00;5.60;;;15.60;99.90;;;;;;5037019;28;20038;-55
2022/09/23 03:19:11;;;;;;;8.70;6.22;;;15.60;99.90;;;;;;5037094;28;20037;-59
2022/09/23 03:21:37;;;;;;;10.18;6.28;;;15.60;99.90;;;;;;5034760;28;20112;-58
2022/09/23 03:24:04;;;;;;;10.60;6.38;;;15.60;99.90;;;;;;5035891;28;20073;-59
2022/09/23 03:26:31;;;;;;;8.18;5.85;;;15.50;99.90;;;;;;5035420;28;20042;-59
2022/09/23 03:28:58;;;;;;;7.88;6.07;;;15.50;99.90;;;;;;5035875;28;20046;-61
2022/09/23 03:31:24;;;;;;;7.10;5.80;;;15.60;99.90;;;;;;5034657;28;20051;-56
2022/09/23 03:33:51;;;;;;;9.52;6.32;;;15.60;99.90;;;;;;5035963;28;20458;-58
2022/09/23 03:39:03;;;;;;;7.43;5.65;;;15.60;99.90;;;;;;5035676;28;20038;-59
2022/09/23 03:41:30;;;;;;;9.75;5.82;;;15.60;99.90;;;;;;5036638;28;20077;-59
2022/09/23 03:43:57;;;;;;;9.38;6.15;;;15.60;99.90;;;;;;5036235;28;20045;-55
2022/09/23 03:46:24;;;;;;;8.55;6.78;;;15.60;99.90;;;;;;5036268;28;20388;-57
2022/09/23 03:48:50;;;;;;;10.90;6.32;;;15.50;99.90;;;;;;5035084;28;20099;-58
2022/09/23 03:51:17;;;;;;;9.20;6.55;;;15.50;99.90;;;;;;5034160;28;20037;-59
2022/09/23 03:53:44;;;;;;;8.50;5.80;;;15.50;99.90;;;;;;5035344;28;20120;-57
2022/09/23 03:56:10;;;;;;;11.57;6.20;;;15.50;99.90;;;;;;5036156;28;20095;-58
2022/09/23 03:58:37;;;;;;;9.45;6.10;;;15.50;99.90;;;;;;5035158;28;20449;-56
2022/09/23 04:01:04;;;;;;;8.80;5.82;;;15.50;99.90;;;;;;5031875;28;20037;-59
2022/09/23 04:03:31;;;;;;;8.25;5.60;;;15.50;99.90;;;;;;5032066;28;20042;-59
2022/09/23 04:05:58;;;;;;;7.68;5.72;;;15.50;99.90;;;;;;5034379;28;20069;-56
2022/09/23 04:08:26;;;;;;;6.30;5.47;;;15.50;99.90;;;;;;5034032;28;20361;-58
2022/09/23 04:10:52;;;;;;;7.07;5.57;;;15.50;99.90;;;;;;5034256;28;20084;-59
2022/09/23 04:13:20;;;;;;;8.45;5.20;;;15.50;99.90;;;;;;5035267;28;20476;-55
2022/09/23 04:15:47;;;;;;;8.70;5.28;;;15.50;99.90;;;;;;5034114;28;20244;-56
2022/09/23 04:18:14;;;;;;;8.13;5.82;;;15.50;99.90;;;;;;5035555;28;20061;-57
2022/09/23 04:20:40;;;;;;;8.65;5.60;;;15.50;99.90;;;;;;5035531;28;20065;-59
2022/09/23 04:23:07;;;;;;;8.63;5.85;;;15.50;99.90;;;;;;5035198;28;20042;-59
2022/09/23 04:25:34;;;;;;;6.93;5.40;;;15.50;99.90;;;;;;5034718;28;20037;-57
2022/09/23 04:28:01;;;;;;;9.23;5.43;;;15.60;99.90;;;;;;5031847;28;20060;-60
2022/09/23 04:30:27;;;;;;;7.57;5.30;;;15.50;99.90;;;;;;5033184;28;20041;-60
2022/09/23 04:32:54;;;;;;;7.38;5.60;;;15.50;99.90;;;;;;5034812;28;20099;-59
2022/09/23 04:35:21;;;;;;;9.73;5.90;;;15.50;99.90;;;;;;5035060;28;20104;-55
2022/09/23 04:37:48;;;;;;;7.70;5.35;;;15.50;99.90;;;;;;5035182;28;20119;-60
2022/09/23 04:40:14;;;;;;;6.95;5.25;;;15.50;99.90;;;;;;5034214;28;20033;-58
2022/09/23 04:42:41;;;;;;;10.02;5.50;;;15.50;99.90;;;;;;5035233;28;20038;-59
2022/09/23 04:45:08;;;;;;;7.60;5.15;;;15.50;99.90;;;;;;5035724;28;20128;-59
2022/09/23 04:47:35;;;;;;;9.02;5.50;;;15.50;99.90;;;;;;5035592;28;20056;-57
2022/09/23 04:50:02;;;;;;;6.80;5.43;;;15.50;99.90;;;;;;5033924;28;20041;-57
2022/09/23 04:52:28;;;;;;;9.00;5.90;;;15.50;99.90;;;;;;5034834;28;20068;-61
2022/09/23 04:54:55;;;;;;;10.77;6.38;;;15.50;99.90;;;;;;5033835;28;20050;-59
2022/09/23 04:57:23;;;;;;;9.07;5.68;;;15.50;99.90;;;;;;5034637;28;20128;-59
2022/09/23 04:59:50;;;;;;;6.88;5.15;;;15.50;99.90;;;;;;5013653;28;20059;-58
2022/09/23 05:02:16;;;;;;;10.05;5.30;;;15.40;99.90;;;;;;5026829;28;20413;-58
2022/09/23 05:04:43;;;;;;;5.82;4.93;;;15.50;99.90;;;;;;5031952;28;20044;-58
2022/09/23 05:07:10;;;;;;;10.23;5.38;;;15.50;99.90;;;;;;5032130;28;20560;-58
2022/09/23 05:09:37;;;;;;;7.07;5.20;;;15.50;99.90;;;;;;5033024;28;20064;-59
2022/09/23 05:12:04;;;;;;;10.60;5.30;;;15.50;99.90;;;;;;5034472;28;20041;-58
2022/09/23 05:14:31;;;;;;;7.00;5.15;;;15.50;99.90;;;;;;5034138;28;20378;-56
2022/09/23 05:16:57;;;;;;;9.10;6.18;;;15.50;99.90;;;;;;5032178;28;20095;-58
2022/09/23 05:19:24;;;;;;;9.32;6.13;;;15.50;99.90;;;;;;5033572;28;20048;-59
2022/09/23 05:21:51;;;;;;;9.50;5.35;;;15.50;99.90;;;;;;5030534;28;20091;-59
2022/09/23 05:24:18;;;;;;;8.70;5.57;;;15.50;99.90;;;;;;5033739;28;20042;-58
2022/09/23 05:26:44;;;;;;;8.38;5.43;;;15.50;99.90;;;;;;5033297;28;20128;-60
2022/09/23 05:29:11;;;;;;;9.60;5.55;;;15.50;99.90;;;;;;5031308;28;20115;-55
2022/09/23 05:31:38;;;;;;;7.13;5.05;;;15.50;99.90;;;;;;5031152;28;20227;-60
2022/09/23 05:34:05;;;;;;;8.68;5.78;;;15.50;99.90;;;;;;5032740;28;20374;-58
2022/09/23 05:36:31;;;;;;;7.18;5.32;;;15.50;99.90;;;;;;5014336;28;20042;-61
2022/09/23 05:39:04;;;;;;;9.77;5.20;;;15.50;99.90;;;;;;5014842;28;20050;-59
2022/09/23 05:41:30;;;;;;;7.65;5.53;;;15.50;99.90;;;;;;5024508;28;20458;-60
2022/09/23 05:43:58;;;;;;;6.80;5.75;;;15.50;99.90;;;;;;5032083;28;20403;-61
2022/09/23 05:46:26;;;;;;;10.60;5.97;;;15.50;99.90;;;;;;5032163;28;20076;-60
2022/09/23 05:48:53;;;;;;;8.57;6.85;;;15.60;99.90;;;;;;5030158;28;20404;-61
2022/09/23 05:51:25;;;;;;;8.38;5.95;;;15.60;99.90;;;;;;5032063;28;20127;-59
2022/09/23 05:53:57;;;;;;;9.52;6.82;;;15.60;99.90;;;;;;5033954;28;20041;-60
2022/09/23 05:56:23;;;;;;;10.23;6.20;;;15.60;99.90;;;;;;5032801;28;20036;-58
2022/09/23 05:58:50;;;;;;;10.15;6.60;;;15.60;99.90;;;;;;5033585;28;20037;-60
2022/09/23 06:01:17;;;;;;;9.05;6.93;;;15.60;99.90;;;;;;5032225;28;20037;-58
2022/09/23 06:03:44;;;;;;;9.60;7.20;;;15.60;99.90;;;;;;5029852;28;20455;-58
2022/09/23 06:06:11;;;;;;;12.35;6.47;;;15.70;99.90;;;;;;5031628;28;20057;-61
2022/09/23 06:08:38;;;;;;;12.77;7.68;;;15.70;99.90;;;;;;5013774;28;20077;-57
2022/09/23 06:11:07;;;;;;;9.48;6.60;;;15.70;99.90;;;;;;5028410;28;20042;-59
2022/09/23 06:13:37;;;;;;;8.65;6.70;;;15.70;99.90;;;;;;5030973;28;20423;-59
2022/09/23 06:16:03;;;;;;;7.78;6.93;;;15.70;99.90;;;;;;5032095;28;20091;-60
2022/09/23 06:18:30;;;;;;;11.93;8.35;;;15.70;99.90;;;;;;5029809;28;20037;-58
2022/09/23 06:20:57;;;;;;;11.77;7.68;;;15.70;99.90;;;;;;5031411;28;20044;-60
2022/09/23 06:23:24;;;;;;;12.10;7.93;;;15.70;99.90;;;;;;5029918;28;20136;-58
2022/09/23 06:25:52;;;;;;;14.13;8.25;;;15.70;99.90;;;;;;5034218;28;20034;-58
2022/09/23 06:28:19;;;;;;;11.32;8.18;;;15.70;99.90;;;;;;5036618;28;20037;-60
2022/09/23 06:30:48;;;;;;;11.65;8.13;;;15.70;99.90;;;;;;5035165;28;20060;-60
2022/09/23 06:33:14;;;;;;;10.35;7.47;;;15.70;99.90;;;;;;5031628;28;20116;-59
2022/09/23 06:35:43;;;;;;;10.65;6.97;;;15.70;99.90;;;;;;5038716;28;20548;-58
2022/09/23 06:38:20;;;;;;;9.82;7.28;;;15.70;99.90;;;;;;5029664;28;20132;-54
2022/09/23 06:40:47;;;;;;;9.98;7.40;;;15.60;99.90;;;;;;5033227;28;20407;-57
2022/09/23 06:43:14;;;;;;;12.88;7.60;;;15.70;99.90;;;;;;5031282;28;20046;-59
2022/09/23 06:45:40;;;;;;;13.82;8.60;;;15.60;99.90;;;;;;5026199;28;20096;-59
2022/09/23 06:48:08;;;;;;;9.68;8.38;;;15.70;99.90;;;;;;5029761;28;20076;-59
2022/09/23 06:50:35;;;;;;;11.95;8.23;;;15.70;99.90;;;;;;5033486;28;20041;-60
2022/09/23 06:53:02;;;;;;;11.40;8.73;;;15.70;99.90;;;;;;5039354;28;20116;-59
2022/09/23 06:55:28;;;;;;;10.82;8.82;;;15.70;99.90;;;;;;5038600;28;20048;-59
2022/09/23 06:57:56;;;;;;;12.88;8.60;;;15.70;99.90;;;;;;5033156;28;20069;-61
2022/09/23 07:00:23;;;;;;;14.93;9.45;;;15.70;99.90;;;;;;5032284;28;20048;-60
2022/09/23 07:02:50;;;;;;;10.95;8.68;;;15.70;99.90;;;;;;5031909;28;20099;-58
2022/09/23 07:05:17;;;;;;;15.15;10.02;;;15.70;99.90;;;;;;5033035;28;20116;-56
2022/09/23 07:07:43;;;;;;;10.40;9.30;;;15.70;99.90;;;;;;5033170;28;20046;-59
2022/09/23 07:10:10;;;;;;;10.85;9.70;;;15.80;99.90;;;;;;5033055;28;20092;-58
2022/09/23 07:12:37;;;;;;;13.13;9.55;;;15.80;99.90;;;;;;5032100;28;20045;-59
2022/09/23 07:15:04;;;;;;;11.00;9.65;;;15.80;99.90;;;;;;5032659;28;20128;-58
2022/09/23 07:17:30;;;;;;;11.52;9.35;;;15.80;99.90;;;;;;5032681;28;20458;-60
2022/09/23 07:19:57;;;;;;;13.68;10.85;;;15.80;99.90;;;;;;5033092;28;20128;-60
2022/09/23 07:22:24;;;;;;;14.38;11.15;;;15.80;99.90;;;;;;5030605;28;20039;-60
2022/09/23 07:24:51;;;;;;;13.55;9.98;;;15.80;99.90;;;;;;5033125;28;20072;-61
2022/09/23 07:27:18;;;;;;;12.43;10.23;;;15.80;99.90;;;;;;5031547;28;20049;-60
2022/09/23 07:29:49;;;;;;;11.38;10.18;;;15.90;99.90;;;;;;5031778;28;20124;-58
2022/09/23 07:32:15;;;;;;;12.35;10.10;;;15.90;99.90;;;;;;5032883;28;20045;-58
2022/09/23 07:34:43;;;;;;;14.93;10.23;;;15.90;99.90;;;;;;5032892;28;20107;-58
2022/09/23 07:37:09;;;;;;;10.85;9.70;;;15.90;99.90;;;;;;5033310;28;20091;-59
2022/09/23 07:39:38;;;;;;;13.00;10.95;;;15.90;99.90;;;;;;5036117;28;20481;-59
2022/09/23 07:42:05;;;;;;;11.98;10.15;;;15.90;99.90;;;;;;5037465;28;20038;-59
2022/09/23 07:44:31;;;;;;;14.85;12.60;;;15.90;99.90;;;;;;5035574;28;20037;-58
2022/09/23 07:46:58;;;;;;;12.57;11.25;;;16.00;99.90;;;;;;5035545;28;20037;-59
2022/09/23 07:49:25;;;;;;;12.60;10.45;;;16.00;99.90;;;;;;5032949;28;20107;-59
2022/09/23 07:51:52;;;;;;;11.43;9.93;;;16.00;99.90;;;;;;5032853;28;20068;-58
2022/09/23 07:54:18;;;;;;;11.82;10.32;;;16.00;99.90;;;;;;5034552;28;20445;-58
2022/09/23 07:56:45;;;;;;;14.50;9.80;;;16.10;99.90;;;;;;5030929;28;20064;-60
2022/09/23 07:59:14;;;;;;;13.23;9.20;;;16.10;99.90;;;;;;5034917;28;20044;-59
2022/09/23 08:01:40;;;;;;;10.93;8.82;;;16.10;99.90;;;;;;5031522;28;20038;-61
2022/09/23 08:04:07;;;;;;;11.32;9.27;;;16.10;99.90;;;;;;5033592;28;20120;-60
2022/09/23 08:06:35;;;;;;;9.40;8.35;;;16.10;99.90;;;;;;5034583;28;20112;-60
2022/09/23 08:09:02;;;;;;;8.40;7.55;;;16.20;99.90;;;;;;5033226;28;20450;-59
2022/09/23 08:11:30;;;;;;;8.63;7.13;;;16.20;99.90;;;;;;5029522;28;20392;-58
2022/09/23 08:13:56;;;;;;;9.40;6.72;;;16.20;99.90;;;;;;5035671;28;20530;-59
2022/09/23 08:16:23;;;;;;;7.45;6.47;;;16.20;99.90;;;;;;5035964;28;20037;-57
2022/09/23 08:18:50;;;;;;;7.32;6.43;;;16.20;99.90;;;;;;5035396;28;20037;-58
2022/09/23 08:21:17;;;;;;;8.32;6.15;;;16.20;99.90;;;;;;5035912;28;20105;-58
2022/09/23 08:23:43;;;;;;;8.43;6.78;;;16.20;99.90;;;;;;5035410;28;20511;-58
2022/09/23 08:26:10;;;;;;;7.88;6.85;;;16.20;99.90;;;;;;5041457;28;20065;-60
2022/09/23 08:28:46;;;;;;;9.75;6.95;;;16.20;99.90;;;;;;5046783;28;20042;-60
2022/09/23 08:31:13;;;;;;;8.50;7.10;;;16.20;99.90;;;;;;5034679;28;20108;-60
2022/09/23 08:33:40;;;;;;;9.63;8.60;;;16.20;99.90;;;;;;5028071;28;20091;-60
2022/09/23 08:36:07;;;;;;;9.68;7.28;;;16.20;99.90;;;;;;5035441;28;20083;-58
2022/09/23 08:38:34;;;;;;;8.38;7.57;;;16.20;99.90;;;;;;5050565;28;20033;-59
2022/09/23 08:41:00;;;;;;;8.63;7.38;;;16.30;99.90;;;;;;5054900;28;20069;-59
2022/09/23 08:43:27;;;;;;;8.75;7.95;;;16.30;99.90;;;;;;5055124;28;20037;-60
2022/09/23 08:45:54;;;;;;;10.45;7.82;;;16.40;99.90;;;;;;5055356;28;20052;-60
2022/09/23 08:48:21;;;;;;;9.43;8.52;;;16.40;99.90;;;;;;5035398;28;20091;-58
2022/09/23 08:50:48;;;;;;;9.32;8.40;;;16.40;99.90;;;;;;5033737;28;20088;-60
2022/09/23 08:53:15;;;;;;;11.43;7.70;;;16.50;99.90;;;;;;5035610;28;20076;-60
2022/09/23 08:55:42;;;;;;;11.20;9.93;;;16.50;99.90;;;;;;5055042;28;20106;-61
2022/09/23 08:58:08;;;;;;;13.32;10.90;;;16.50;99.90;;;;;;5053853;28;20095;-59
2022/09/23 09:00:52;;;;;;;10.95;9.88;;;16.50;99.90;;;;;;5052943;28;20115;-60
2022/09/23 09:03:19;;;;;;;12.40;9.38;;;16.60;99.90;;;;;;5052205;28;20045;-60
2022/09/23 09:05:45;;;;;;;9.40;8.40;;;16.60;99.90;;;;;;5035031;28;20072;-60
2022/09/23 09:08:22;;;;;;;8.65;7.85;;;16.60;99.90;;;;;;5015196;28;20049;-60
2022/09/23 09:10:49;;;;;;;9.00;8.20;;;16.70;99.90;;;;;;5027631;28;20065;-60
2022/09/23 09:13:17;;;;;;;8.93;8.02;;;16.70;99.90;;;;;;5054270;28;20120;-59
2022/09/23 09:15:43;;;;;;;11.32;7.43;;;16.70;99.90;;;;;;5054179;28;20436;-60
2022/09/23 09:18:11;;;;;;;8.90;8.00;;;16.70;99.90;;;;;;5034514;28;20052;-55
2022/09/23 09:20:37;;;;;;;8.57;7.60;;;16.80;99.90;;;;;;5034273;28;20045;-59
2022/09/23 09:23:04;;;;;;;8.52;7.72;;;16.80;99.90;;;;;;5032859;28;20544;-59
2022/09/23 09:25:31;;;;;;;8.70;7.82;;;16.80;99.90;;;;;;5032639;28;20447;-59
2022/09/23 09:27:59;;;;;;;8.40;7.60;;;16.80;99.90;;;;;;5029508;28;20998;-59
2022/09/23 09:30:26;;;;;;;9.20;8.30;;;16.80;99.90;;;;;;5032332;28;20099;-59
2022/09/23 09:32:53;;;;;;;9.55;7.70;;;16.70;99.90;;;;;;5029834;28;20041;-60
2022/09/23 09:35:20;;;;;;;10.52;8.02;;;16.70;99.90;;;;;;5031693;28;20041;-59
2022/09/23 09:37:47;;;;;;;9.80;8.63;;;16.60;99.90;;;;;;5030808;28;20044;-60
2022/09/23 09:40:15;;;;;;;9.25;8.18;;;16.60;99.90;;;;;;5031955;28;20042;-60
2022/09/23 09:42:42;;;;;;;13.35;9.45;;;16.60;99.90;;;;;;5031448;28;20099;-59
2022/09/23 09:45:09;;;;;;;12.93;11.57;;;16.60;99.90;;;;;;5032313;28;20037;-59
2022/09/23 09:47:36;;;;;;;14.95;12.70;;;16.40;99.90;;;;;;5030756;28;20042;-60
2022/09/23 09:50:03;;;;;;;19.42;14.98;;;16.40;99.90;;;;;;5032547;28;20503;-60
2022/09/23 09:52:30;;;;;;;19.80;16.70;;;16.30;99.90;;;;;;5031654;28;20073;-59
2022/09/23 09:54:58;;;;;;;19.77;17.17;;;16.20;99.90;;;;;;5030308;28;20050;-59
2022/09/23 09:57:30;;;;;;;19.23;17.23;;;16.20;99.90;;;;;;5025441;28;20492;-59
2022/09/23 10:00:01;;;;;;;19.02;16.98;;;16.10;99.90;;;;;;5025569;28;20034;-60
2022/09/23 10:02:37;;;;;;;21.80;18.50;;;16.10;99.90;;;;;;5033770;28;20049;-59
2022/09/23 10:05:04;;;;;;;20.40;18.27;;;16.10;99.90;;;;;;5042172;28;20048;-60
2022/09/23 10:07:31;;;;;;;22.67;19.33;;;16.00;99.90;;;;;;5039472;28;20047;-60
2022/09/23 10:10:00;;;;;;;21.65;19.55;;;16.00;99.90;;;;;;5053378;28;20041;-60
2022/09/23 10:12:41;;;;;;;21.70;18.77;;;16.00;99.90;;;;;;5039221;28;20049;-61
2022/09/23 10:15:08;;;;;;;23.20;19.50;;;16.00;99.90;;;;;;5038889;28;20029;-60
2022/09/23 10:17:34;;;;;;;23.92;19.30;;;16.10;99.90;;;;;;5052015;28;20072;-60
2022/09/23 10:20:01;;;;;;;21.42;19.13;;;16.10;99.90;;;;;;5031482;28;20037;-60
2022/09/23 10:22:28;;;;;;;21.38;19.08;;;16.10;99.90;;;;;;5033159;28;20481;-60
2022/09/23 10:24:55;;;;;;;21.45;19.45;;;16.00;99.90;;;;;;5031016;28;20029;-60
2022/09/23 10:27:22;;;;;;;22.67;20.20;;;16.10;99.90;;;;;;5031639;28;20049;-60
2022/09/23 10:29:49;;;;;;;21.65;19.55;;;16.10;99.90;;;;;;5021813;28;20818;-59
2022/09/23 10:32:19;;;;;;;22.30;19.63;;;16.10;99.90;;;;;;5026558;28;20566;-60
2022/09/23 10:34:46;;;;;;;22.83;20.13;;;16.10;99.90;;;;;;5028583;28;20448;-59
2022/09/23 10:37:12;;;;;;;22.65;20.17;;;16.10;99.90;;;;;;5032916;28;20088;-60
2022/09/23 10:47:56;;;;;;;;;;;16.20;99.90;;;;;;5030694;28;20056;-59
2022/09/23 10:50:22;;;;;;;16.90;15.20;;;16.20;99.90;;;;;;5031065;28;20012;-59
2022/09/23 10:52:49;;;;;;;17.83;16.02;;;16.20;99.90;;;;;;5030387;28;20073;-58
2022/09/23 10:55:16;;;;;;;17.92;16.08;;;16.20;99.90;;;;;;5030216;28;20489;-59
2022/09/23 10:57:42;;;;;;;18.15;16.42;;;16.30;99.90;;;;;;5029925;28;20044;-58
2022/09/23 11:00:09;;;;;;;17.17;15.48;;;16.30;99.90;;;;;;5029959;28;20107;-58
2022/09/23 11:02:36;;;;;;;16.67;15.13;;;16.30;99.90;;;;;;5031232;28;20054;-59
2022/09/23 11:05:03;;;;;;;17.20;15.48;;;16.30;99.90;;;;;;5030454;28;20064;-56
2022/09/23 11:07:34;;;;;;;17.05;15.43;;;16.40;99.90;;;;;;5022944;28;20038;-60
2022/09/23 11:10:03;;;;;;;17.10;15.30;;;16.50;99.90;;;;;;5032498;28;20507;-58
2022/09/23 11:12:30;;;;;;;16.58;14.88;;;16.50;99.90;;;;;;5022187;28;20049;-59
2022/09/23 11:14:58;;;;;;;16.20;14.50;;;16.60;99.90;;;;;;5032341;28;20144;-57
2022/09/23 11:17:25;;;;;;;15.85;14.25;;;16.70;99.90;;;;;;5033218;28;20041;-60
2022/09/23 11:19:54;;;;;;;16.75;13.93;;;16.80;99.90;;;;;;5031282;28;20095;-58
2022/09/23 11:22:21;;;;;;;16.52;14.93;;;16.80;99.90;;;;;;5034374;28;20041;-58
2022/09/23 11:24:50;;;;;;;15.48;13.35;;;17.00;99.90;;;;;;5034833;28;20045;-57
2022/09/23 11:27:17;;;;;;;14.73;13.25;;;17.00;99.90;;;;;;5032085;28;20045;-59
2022/09/23 11:29:44;;;;;;;13.70;12.40;;;17.10;99.90;;;;;;5042226;28;20124;-58
2022/09/23 11:32:13;;;;;;;12.05;10.95;;;17.10;99.90;;;;;;5055980;28;20082;-59
2022/09/23 11:34:39;;;;;;;10.38;9.38;;;17.10;99.90;;;;;;5056013;28;20048;-58
2022/09/23 11:37:06;;;;;;;11.63;9.65;;;17.10;99.90;;;;;;5047227;28;20111;-55
2022/09/23 11:39:33;;;;;;;9.60;8.35;;;17.00;99.90;;;;;;5035841;28;20055;-59
2022/09/23 11:42:00;;;;;;;9.68;8.60;;;17.00;99.90;;;;;;5035998;28;20037;-54
2022/09/23 11:44:27;;;;;;;10.25;8.18;;;17.00;99.90;;;;;;5035025;28;20045;-58
2022/09/23 11:46:54;;;;;;;9.20;8.30;;;16.90;99.90;;;;;;5034483;28;20081;-56
2022/09/23 11:49:20;;;;;;;9.23;8.10;;;16.90;99.90;;;;;;5031650;28;20038;-54
2022/09/23 11:51:47;;;;;;;9.00;8.00;;;16.90;99.90;;;;;;5039878;28;20065;-58
2022/09/23 11:54:14;;;;;;;9.55;8.15;;;17.00;99.90;;;;;;5035110;28;20132;-59
2022/09/23 11:56:46;;;;;;;11.10;8.65;;;17.00;99.90;;;;;;5030754;28;20839;-58
2022/09/23 11:59:14;;;;;;;10.05;8.77;;;17.00;99.90;;;;;;5035324;28;20037;-56
2022/09/23 12:01:42;;;;;;;9.07;8.18;;;17.10;99.90;;;;;;5032561;28;20041;-59
2022/09/23 12:04:11;;;;;;;8.35;7.55;;;17.20;99.90;;;;;;5030992;28;20128;-57
2022/09/23 12:06:46;;;;;;;;;;;17.20;99.90;;;;;;5033566;28;20041;-58
2022/09/23 12:09:13;;;;;;;7.50;5.80;;;17.30;99.90;;;;;;5030031;28;19937;-57
2022/09/23 12:11:39;;;;;;;5.95;5.35;;;17.30;99.90;;;;;;5032382;28;20488;-59
2022/09/23 12:14:07;;;;;;;5.72;5.10;;;17.40;99.90;;;;;;5030878;28;20095;-57
2022/09/23 12:16:34;;;;;;;5.65;5.15;;;17.40;99.90;;;;;;5034842;28;20056;-58
2022/09/23 12:19:01;;;;;;;6.32;4.97;;;17.40;99.90;;;;;;5029302;28;20061;-59
2022/09/23 12:21:28;;;;;;;5.15;4.65;;;17.40;99.90;;;;;;5017675;28;20095;-58
2022/09/23 12:24:15;;;;;;;7.32;6.20;;;17.40;99.90;;;;;;5026255;28;20042;-57
2022/09/23 12:26:45;;;;;;;4.97;4.43;;;17.40;99.90;;;;;;5034537;28;20049;-57
2022/09/23 12:29:12;;;;;;;7.20;5.03;;;17.30;99.90;;;;;;5041634;28;20045;-58
2022/09/23 12:31:39;;;;;;;5.88;4.97;;;17.40;99.90;;;;;;5030868;28;20049;-57
2022/09/23 12:34:09;;;;;;;5.95;4.97;;;17.40;99.90;;;;;;5048756;28;20045;-56
2022/09/23 12:36:37;;;;;;;7.40;5.07;;;17.40;99.90;;;;;;5050530;28;20041;-58
2022/09/23 12:39:04;;;;;;;5.63;4.40;;;17.50;99.90;;;;;;5053896;28;20040;-58
2022/09/23 12:41:36;;;;;;;5.45;4.70;;;17.60;99.90;;;;;;5049988;28;20037;-59
2022/09/23 12:44:03;;;;;;;5.70;4.57;;;17.60;99.90;;;;;;5034234;28;20393;-59
2022/09/23 12:46:29;;;;;;;6.72;4.88;;;17.60;99.90;;;;;;5043721;28;20148;-59
2022/09/23 12:48:56;;;;;;;5.28;4.43;;;17.60;99.90;;;;;;5041809;28;20120;-58
2022/09/23 12:51:23;;;;;;;4.43;4.03;;;17.60;99.90;;;;;;5034873;28;20134;-59